Time;durP1;ratioP1;P1;durP2;ratioP2;P2;SDS_P1;SDS_P2;PMS_P1;PMS_P2;Temp;Humidity;BMP_temperature;BMP_pressure;BME280_temperature;BME280_humidity;BME280_pressure;Samples;Min_cycle;Max_cycle;Signal;HPM_P1;HPM_P2
2021/04/23 00:01:47;;;;;;;0.30;0.30;;;8.00;99.90;;;;;;4994396;28;20641;-77
2021/04/23 00:04:13;;;;;;;0.20;0.20;;;7.90;99.90;;;;;;4994117;28;20237;-76
2021/04/23 00:06:43;;;;;;;0.40;0.40;;;7.60;99.90;;;;;;4994340;28;20189;-76
2021/04/23 00:09:13;;;;;;;0.20;0.20;;;7.60;99.90;;;;;;4994345;28;20332;-76
2021/04/23 00:12:01;;;;;;;0.20;0.20;;;7.40;99.90;;;;;;4993121;28;20173;-76
2021/04/23 00:14:33;;;;;;;0.45;0.45;;;7.30;99.90;;;;;;4993543;28;20181;-76
2021/04/23 00:16:59;;;;;;;1.40;0.70;;;7.20;99.90;;;;;;4994121;28;20181;-76
2021/04/23 00:19:27;;;;;;;8.35;1.42;;;7.30;99.90;;;;;;4994095;28;20165;-76
2021/04/23 00:21:53;;;;;;;0.68;0.68;;;7.40;99.90;;;;;;4994173;28;20525;-76
2021/04/23 00:24:21;;;;;;;0.52;0.52;;;7.30;99.90;;;;;;4993959;28;20292;-76
2021/04/23 00:26:46;;;;;;;0.20;0.20;;;7.30;99.90;;;;;;5009019;28;20185;-76
2021/04/23 00:29:12;;;;;;;0.60;0.60;;;7.40;99.90;;;;;;4994007;28;20161;-76
2021/04/23 00:31:39;;;;;;;0.68;0.60;;;7.20;99.90;;;;;;4994108;28;20165;-77
2021/04/23 00:34:06;;;;;;;1.83;0.47;;;7.00;99.90;;;;;;4994054;28;20169;-76
2021/04/23 00:36:32;;;;;;;3.80;1.63;;;7.00;99.90;;;;;;4993798;28;20181;-76
2021/04/23 00:38:58;;;;;;;0.20;0.20;;;7.00;99.90;;;;;;4992341;28;20179;-76
2021/04/23 00:41:33;;;;;;;0.93;0.90;;;7.10;99.90;;;;;;4992641;28;20207;-76
2021/04/23 00:43:59;;;;;;;0.73;0.68;;;7.10;99.90;;;;;;4993711;28;20204;-77
2021/04/23 00:46:28;;;;;;;0.70;0.70;;;7.00;99.90;;;;;;4993718;28;20185;-76
2021/04/23 00:48:54;;;;;;;0.88;0.88;;;7.00;99.90;;;;;;4993649;28;20203;-76
2021/04/23 00:51:28;;;;;;;0.60;0.60;;;7.10;99.90;;;;;;4993727;28;20193;-77
2021/04/23 00:53:54;;;;;;;0.10;0.10;;;7.10;99.90;;;;;;4993610;28;20256;-76
2021/04/23 00:56:22;;;;;;;2.20;0.95;;;7.40;99.90;;;;;;4992310;28;20193;-76
2021/04/23 00:58:49;;;;;;;1.02;0.70;;;7.20;99.90;;;;;;4993721;28;20176;-76
2021/04/23 01:01:24;;;;;;;0.30;0.30;;;7.30;99.90;;;;;;4993636;28;20200;-76
2021/04/23 01:03:51;;;;;;;0.57;0.57;;;7.30;99.90;;;;;;4993668;28;20210;-76
2021/04/23 01:06:20;;;;;;;1.85;0.95;;;7.30;99.90;;;;;;4993553;28;20262;-77
2021/04/23 01:08:47;;;;;;;0.32;0.32;;;7.20;99.90;;;;;;4993621;28;20244;-76
2021/04/23 01:11:15;;;;;;;4.68;0.47;;;7.20;99.90;;;;;;4993569;28;20212;-77
2021/04/23 01:13:41;;;;;;;0.20;0.20;;;7.30;99.90;;;;;;4996890;28;20176;-76
2021/04/23 01:16:27;;;;;;;0.20;0.20;;;7.30;99.90;;;;;;4997528;28;20180;-76
2021/04/23 01:18:54;;;;;;;0.68;0.68;;;7.30;99.90;;;;;;4997176;28;20300;-76
2021/04/23 01:21:22;;;;;;;0.38;0.38;;;7.10;99.90;;;;;;4997420;28;20266;-76
2021/04/23 01:23:51;;;;;;;0.30;0.30;;;7.10;99.90;;;;;;4997323;28;20292;-76
2021/04/23 01:26:18;;;;;;;0.25;0.25;;;7.10;99.90;;;;;;4996122;28;20221;-76
2021/04/23 01:28:46;;;;;;;1.25;1.08;;;7.10;99.90;;;;;;4997252;28;20181;-76
2021/04/23 01:31:14;;;;;;;0.20;0.20;;;7.00;99.90;;;;;;4997203;28;20644;-76
2021/04/23 01:33:43;;;;;;;0.88;0.30;;;6.90;99.90;;;;;;4997182;28;20169;-76
2021/04/23 01:36:09;;;;;;;0.47;0.47;;;6.90;99.90;;;;;;4997196;28;20199;-76
2021/04/23 01:38:36;;;;;;;0.28;0.28;;;6.90;99.90;;;;;;4995974;28;20219;-76
2021/04/23 01:41:04;;;;;;;1.48;0.45;;;7.00;99.90;;;;;;4996793;28;20228;-76
2021/04/23 01:43:29;;;;;;;1.08;0.88;;;7.00;99.90;;;;;;4996977;28;20212;-76
2021/04/23 01:45:55;;;;;;;0.35;0.35;;;6.80;99.90;;;;;;4996914;28;20232;-76
2021/04/23 01:48:21;;;;;;;0.20;0.20;;;6.80;99.90;;;;;;4996953;28;20568;-77
2021/04/23 01:50:47;;;;;;;1.83;1.60;;;7.00;99.90;;;;;;5012035;28;20224;-77
2021/04/23 01:53:14;;;;;;;0.60;0.60;;;7.00;99.90;;;;;;4996996;28;20269;-77
2021/04/23 01:55:40;;;;;;;0.40;0.40;;;7.10;99.90;;;;;;4996695;28;20236;-76
2021/04/23 01:58:06;;;;;;;0.38;0.38;;;7.00;99.90;;;;;;4995530;28;20689;-76
2021/04/23 02:00:45;;;;;;;0.20;0.20;;;7.00;99.90;;;;;;5011617;28;20201;-76
2021/04/23 02:03:11;;;;;;;2.55;1.50;;;6.80;99.90;;;;;;4996775;28;20208;-76
2021/04/23 02:05:38;;;;;;;0.63;0.63;;;6.80;99.90;;;;;;4995518;28;20216;-77
2021/04/23 02:08:07;;;;;;;5.65;0.90;;;6.60;99.90;;;;;;4995486;28;20524;-76
2021/04/23 02:10:43;;;;;;;0.30;0.30;;;6.70;99.90;;;;;;4996513;28;20183;-76
2021/04/23 02:13:10;;;;;;;1.02;1.02;;;6.70;99.90;;;;;;4996742;28;20177;-77
2021/04/23 02:15:35;;;;;;;0.52;0.52;;;6.90;99.90;;;;;;4996918;28;20259;-77
2021/04/23 02:18:02;;;;;;;0.20;0.20;;;6.90;99.90;;;;;;4997306;28;20245;-77
2021/04/23 02:20:31;;;;;;;0.20;0.20;;;6.80;99.90;;;;;;5009263;28;20158;-77
2021/04/23 02:22:58;;;;;;;0.45;0.45;;;7.00;99.90;;;;;;5010192;28;20176;-77
2021/04/23 02:25:25;;;;;;;0.55;0.55;;;7.10;99.90;;;;;;5005811;28;20161;-77
2021/04/23 02:27:52;;;;;;;0.82;0.80;;;7.00;99.90;;;;;;5014121;28;20216;-76
2021/04/23 02:30:27;;;;;;;0.60;0.60;;;6.90;99.90;;;;;;5014216;28;20170;-77
2021/04/23 02:32:53;;;;;;;0.40;0.40;;;7.00;99.90;;;;;;5014131;28;20188;-76
2021/04/23 02:35:21;;;;;;;6.88;1.27;;;7.00;99.90;;;;;;5010125;28;20744;-76
2021/04/23 02:37:47;;;;;;;0.40;0.40;;;7.00;99.90;;;;;;5001898;28;20676;-76
2021/04/23 02:40:15;;;;;;;0.57;0.57;;;6.90;99.90;;;;;;4998845;28;20225;-76
2021/04/23 02:42:42;;;;;;;15.15;2.05;;;6.80;99.90;;;;;;4995458;28;20174;-76
2021/04/23 02:45:11;;;;;;;0.60;0.45;;;6.90;99.90;;;;;;4996322;28;20249;-77
2021/04/23 02:47:37;;;;;;;0.50;0.50;;;6.90;99.90;;;;;;4996018;28;20193;-77
2021/04/23 02:50:06;;;;;;;0.65;0.47;;;6.70;99.90;;;;;;4996009;28;20192;-77
2021/04/23 02:52:31;;;;;;;0.90;0.85;;;6.50;99.90;;;;;;4995901;28;20577;-77
2021/04/23 02:54:57;;;;;;;0.55;0.50;;;6.40;99.90;;;;;;4995889;28;20153;-77
2021/04/23 02:57:23;;;;;;;0.60;0.60;;;6.40;99.90;;;;;;4995561;28;20247;-77
2021/04/23 02:59:48;;;;;;;0.45;0.45;;;6.30;99.90;;;;;;4995625;28;20162;-77
2021/04/23 03:02:14;;;;;;;1.58;1.48;;;6.40;99.90;;;;;;4995479;28;20184;-77
2021/04/23 03:04:40;;;;;;;0.77;0.77;;;6.50;99.90;;;;;;4995442;28;20270;-77
2021/04/23 03:07:05;;;;;;;0.40;0.40;;;6.30;99.90;;;;;;4995342;28;20230;-77
2021/04/23 03:09:31;;;;;;;0.50;0.50;;;6.20;99.90;;;;;;5010468;28;20205;-76
2021/04/23 03:11:56;;;;;;;0.32;0.32;;;6.20;99.90;;;;;;4995438;28;20180;-77
2021/04/23 03:14:22;;;;;;;0.75;0.75;;;6.20;99.90;;;;;;4995349;28;20178;-76
2021/04/23 03:16:48;;;;;;;0.45;0.45;;;6.20;99.90;;;;;;4993975;28;20574;-76
2021/04/23 03:19:17;;;;;;;0.20;0.20;;;6.30;99.90;;;;;;4995023;28;20248;-76
2021/04/23 03:21:43;;;;;;;0.57;0.57;;;6.30;99.90;;;;;;4995298;28;20157;-77
2021/04/23 03:24:11;;;;;;;3.10;2.08;;;6.20;99.90;;;;;;5010132;28;20201;-77
2021/04/23 03:26:36;;;;;;;0.88;0.88;;;6.20;99.90;;;;;;4993723;28;20570;-76
2021/04/23 03:29:04;;;;;;;0.73;0.73;;;6.20;99.90;;;;;;4995066;28;20194;-77
2021/04/23 03:31:30;;;;;;;0.50;0.50;;;6.10;99.90;;;;;;4995004;28;20184;-76
2021/04/23 03:33:56;;;;;;;23.95;1.02;;;6.10;99.90;;;;;;4995031;28;20169;-76
2021/04/23 03:36:21;;;;;;;0.40;0.40;;;6.10;99.90;;;;;;4994362;28;20653;-77
2021/04/23 03:38:48;;;;;;;0.60;0.60;;;6.10;99.90;;;;;;4994651;28;20250;-76
2021/04/23 03:41:25;;;;;;;13.35;1.63;;;6.00;99.90;;;;;;4994619;28;20185;-76
2021/04/23 03:43:52;;;;;;;0.35;0.35;;;5.80;99.90;;;;;;4994662;28;20200;-77
2021/04/23 03:46:18;;;;;;;0.20;0.20;;;5.80;99.90;;;;;;4994659;28;20193;-77
2021/04/23 03:48:44;;;;;;;0.95;0.82;;;5.70;99.90;;;;;;4994571;28;20165;-76
2021/04/23 03:51:12;;;;;;;3.00;0.95;;;5.70;99.90;;;;;;4994284;28;20200;-76
2021/04/23 03:53:38;;;;;;;0.93;0.93;;;5.80;99.90;;;;;;4994656;28;20220;-76
2021/04/23 03:56:07;;;;;;;0.45;0.45;;;5.70;99.90;;;;;;4994561;28;20197;-76
2021/04/23 03:58:34;;;;;;;0.68;0.68;;;5.70;99.90;;;;;;4994434;28;20157;-77
2021/04/23 04:01:07;;;;;;;0.52;0.52;;;5.70;99.90;;;;;;4994304;28;20232;-76
2021/04/23 04:03:33;;;;;;;0.82;0.60;;;5.60;99.90;;;;;;4993063;28;20197;-77
2021/04/23 04:05:59;;;;;;;0.35;0.35;;;5.70;99.90;;;;;;4994299;28;20538;-76
2021/04/23 04:08:26;;;;;;;1.77;1.40;;;5.50;99.90;;;;;;4994142;28;20157;-77
2021/04/23 04:10:52;;;;;;;0.80;0.80;;;5.50;99.90;;;;;;4994273;28;20173;-77
2021/04/23 04:13:18;;;;;;;0.22;0.22;;;5.60;99.90;;;;;;4994135;28;20162;-77
2021/04/23 04:15:44;;;;;;;0.65;0.65;;;5.60;99.90;;;;;;4992981;28;20658;-77
2021/04/23 04:18:11;;;;;;;1.52;1.42;;;5.60;99.90;;;;;;4994298;28;20161;-77
2021/04/23 04:20:40;;;;;;;0.20;0.20;;;5.60;99.90;;;;;;4994094;28;20174;-76
2021/04/23 04:23:07;;;;;;;0.35;0.35;;;5.60;99.90;;;;;;4993984;28;20197;-77
2021/04/23 04:25:37;;;;;;;0.30;0.30;;;5.70;99.90;;;;;;4994030;28;20692;-76
2021/04/23 04:28:04;;;;;;;0.88;0.68;;;5.60;99.90;;;;;;4993983;28;20692;-77
2021/04/23 04:30:30;;;;;;;1.05;0.73;;;5.50;99.90;;;;;;4993912;28;20277;-76
2021/04/23 04:32:56;;;;;;;0.50;0.50;;;5.40;99.90;;;;;;4993878;28;20567;-77
2021/04/23 04:35:27;;;;;;;0.22;0.22;;;5.40;99.90;;;;;;4993892;28;20157;-76
2021/04/23 04:37:57;;;;;;;1.33;1.27;;;5.40;99.90;;;;;;4992590;28;20224;-76
2021/04/23 04:40:24;;;;;;;3.40;2.00;;;5.50;99.90;;;;;;4993461;28;20248;-76
2021/04/23 04:42:50;;;;;;;1.08;1.08;;;5.60;99.90;;;;;;4993599;28;20185;-76
2021/04/23 04:45:18;;;;;;;1.25;1.17;;;5.50;99.90;;;;;;4993686;28;20613;-76
2021/04/23 04:47:45;;;;;;;0.30;0.30;;;5.60;99.90;;;;;;4993333;28;20605;-76
2021/04/23 04:50:15;;;;;;;2.53;0.85;;;5.70;99.90;;;;;;4992534;28;20616;-77
2021/04/23 04:52:41;;;;;;;1.02;0.80;;;5.80;99.90;;;;;;4993893;28;20271;-77
2021/04/23 04:55:08;;;;;;;0.40;0.40;;;5.80;99.90;;;;;;4993610;28;20161;-77
2021/04/23 04:57:35;;;;;;;0.40;0.40;;;5.70;99.90;;;;;;4993477;28;20185;-77
2021/04/23 05:00:01;;;;;;;0.77;0.77;;;5.60;99.90;;;;;;4991971;28;20870;-77
2021/04/23 05:02:27;;;;;;;0.52;0.52;;;5.60;99.90;;;;;;4992175;28;20173;-77
2021/04/23 05:04:52;;;;;;;5.25;2.05;;;5.70;99.90;;;;;;4993319;28;20193;-77
2021/04/23 05:07:18;;;;;;;0.52;0.52;;;5.80;99.90;;;;;;4992057;28;20187;-76
2021/04/23 05:09:44;;;;;;;0.95;0.93;;;5.70;99.90;;;;;;4993394;28;20177;-76
2021/04/23 05:12:09;;;;;;;1.48;0.90;;;5.70;99.90;;;;;;4993174;28;20170;-76
2021/04/23 05:14:35;;;;;;;0.90;0.90;;;5.80;99.90;;;;;;4993358;28;20189;-77
2021/04/23 05:17:01;;;;;;;10.27;1.20;;;5.90;99.90;;;;;;4989970;28;20209;-77
2021/04/23 05:19:26;;;;;;;0.65;0.65;;;5.70;99.90;;;;;;4993312;28;20165;-76
2021/04/23 05:21:52;;;;;;;1.58;1.48;;;5.70;99.90;;;;;;4992076;28;20275;-77
2021/04/23 05:24:18;;;;;;;1.30;0.95;;;5.90;99.90;;;;;;4993180;28;20201;-77
2021/04/23 05:26:44;;;;;;;0.85;0.85;;;6.00;99.90;;;;;;4992284;28;20182;-77
2021/04/23 05:29:09;;;;;;;1.42;1.25;;;6.00;99.90;;;;;;4993436;28;20522;-77
2021/04/23 05:31:35;;;;;;;2.22;0.95;;;6.00;99.90;;;;;;4993282;28;20616;-76
2021/04/23 05:34:01;;;;;;;1.98;1.02;;;6.10;99.90;;;;;;4993245;28;20526;-76
2021/04/23 05:36:27;;;;;;;7.32;2.40;;;6.10;99.90;;;;;;4993047;28;20204;-77
2021/04/23 05:38:53;;;;;;;0.32;0.32;;;6.00;99.90;;;;;;4993058;28;20606;-77
2021/04/23 05:41:19;;;;;;;0.50;0.50;;;6.10;99.90;;;;;;4993074;28;20200;-76
2021/04/23 05:43:47;;;;;;;2.08;0.93;;;6.20;99.90;;;;;;4992876;28;20558;-76
2021/04/23 05:46:13;;;;;;;25.92;1.40;;;6.30;99.90;;;;;;4993007;28;20578;-77
2021/04/23 05:48:39;;;;;;;0.60;0.60;;;6.30;99.90;;;;;;4991747;28;20578;-77
2021/04/23 05:51:05;;;;;;;0.77;0.77;;;6.30;99.90;;;;;;4991680;28;20269;-77
2021/04/23 05:53:31;;;;;;;2.20;1.38;;;6.10;99.90;;;;;;4991922;28;20530;-76
2021/04/23 05:55:58;;;;;;;5.70;2.38;;;6.00;99.90;;;;;;4992467;28;20723;-77
2021/04/23 05:58:23;;;;;;;0.38;0.38;;;6.10;99.90;;;;;;4992792;28;20170;-76
2021/04/23 06:00:50;;;;;;;0.68;0.68;;;6.20;99.90;;;;;;4996580;28;20644;-76
2021/04/23 06:03:15;;;;;;;1.30;1.00;;;6.20;99.90;;;;;;4996431;28;20274;-76
2021/04/23 06:05:41;;;;;;;0.50;0.50;;;6.20;99.90;;;;;;4995137;28;20379;-76
2021/04/23 06:08:09;;;;;;;0.55;0.55;;;6.30;99.90;;;;;;4995738;28;20184;-76
2021/04/23 06:10:35;;;;;;;0.95;0.95;;;6.40;99.90;;;;;;4996308;28;20219;-76
2021/04/23 06:13:01;;;;;;;0.65;0.65;;;6.50;99.90;;;;;;4996015;28;20571;-76
2021/04/23 06:15:28;;;;;;;5.28;1.15;;;6.50;99.90;;;;;;4996152;28;20545;-76
2021/04/23 06:17:55;;;;;;;4.30;1.95;;;6.50;99.90;;;;;;4996176;28;20522;-77
2021/04/23 06:20:23;;;;;;;0.52;0.52;;;6.60;99.90;;;;;;4994988;28;20587;-77
2021/04/23 06:22:50;;;;;;;0.57;0.57;;;6.70;99.90;;;;;;4996066;28;20244;-76
2021/04/23 06:25:18;;;;;;;0.50;0.50;;;6.70;99.90;;;;;;4995873;28;20527;-77
2021/04/23 06:27:45;;;;;;;2.78;1.30;;;6.60;99.90;;;;;;4995577;28;20185;-76
2021/04/23 06:30:15;;;;;;;1.02;1.02;;;6.80;99.90;;;;;;4994955;28;20212;-76
2021/04/23 06:32:43;;;;;;;0.45;0.45;;;6.90;99.90;;;;;;4994807;28;20216;-76
2021/04/23 06:35:12;;;;;;;0.25;0.25;;;7.00;99.90;;;;;;4995326;28;20150;-77
2021/04/23 06:37:37;;;;;;;0.93;0.93;;;7.20;99.90;;;;;;4995288;28;20193;-77
2021/04/23 06:40:04;;;;;;;0.50;0.50;;;7.30;99.90;;;;;;4995215;28;20224;-77
2021/04/23 06:42:30;;;;;;;0.98;0.55;;;7.30;99.90;;;;;;4993882;28;20174;-77
2021/04/23 06:44:56;;;;;;;4.90;1.63;;;7.50;99.90;;;;;;4994113;28;20196;-77
2021/04/23 06:47:21;;;;;;;0.88;0.88;;;7.90;99.90;;;;;;4994267;28;20205;-77
2021/04/23 06:49:47;;;;;;;1.92;1.75;;;8.00;99.90;;;;;;4995609;28;20227;-77
2021/04/23 06:52:13;;;;;;;1.45;0.95;;;7.80;99.90;;;;;;4995749;28;20203;-76
2021/04/23 06:54:38;;;;;;;0.28;0.28;;;7.70;99.90;;;;;;4995467;28;20256;-77
2021/04/23 06:57:04;;;;;;;0.45;0.45;;;7.60;99.90;;;;;;4995409;28;20264;-77
2021/04/23 06:59:30;;;;;;;0.95;0.95;;;7.70;99.90;;;;;;4995590;28;20300;-78
2021/04/23 07:01:55;;;;;;;0.20;0.20;;;7.70;99.90;;;;;;4995549;28;20662;-77
2021/04/23 07:04:21;;;;;;;0.55;0.55;;;7.80;99.90;;;;;;4995386;28;20267;-78
2021/04/23 07:06:46;;;;;;;0.45;0.45;;;8.00;99.90;;;;;;4995240;28;20186;-77
2021/04/23 07:09:17;;;;;;;21.65;2.78;;;8.20;99.90;;;;;;4994934;28;20285;-77
2021/04/23 07:11:43;;;;;;;1.75;1.27;;;8.20;99.90;;;;;;4993594;28;20209;-77
2021/04/23 07:14:08;;;;;;;5.22;1.95;;;8.10;99.90;;;;;;4994002;28;20528;-77
2021/04/23 07:16:34;;;;;;;20.92;1.48;;;8.00;99.90;;;;;;4993926;28;20247;-77
2021/04/23 07:18:59;;;;;;;2.85;1.05;;;8.00;99.90;;;;;;4992764;28;20256;-79
2021/04/23 07:21:25;;;;;;;2.85;1.20;;;8.00;99.90;;;;;;4991679;28;20177;-79
2021/04/23 07:23:51;;;;;;;0.20;0.20;;;7.90;99.90;;;;;;4993955;28;20208;-78
2021/04/23 07:26:16;;;;;;;1.08;0.65;;;7.90;99.90;;;;;;4994294;28;20185;-78
2021/04/23 07:28:42;;;;;;;1.25;0.65;;;7.80;99.90;;;;;;4994085;28;20168;-78
2021/04/23 07:31:07;;;;;;;0.65;0.60;;;7.80;99.90;;;;;;4993992;28;20180;-77
2021/04/23 07:33:33;;;;;;;0.63;0.63;;;7.90;99.90;;;;;;4993462;28;20169;-78
2021/04/23 07:35:58;;;;;;;2.22;1.38;;;7.90;99.90;;;;;;4992855;28;20292;-78
2021/04/23 07:38:24;;;;;;;0.28;0.28;;;8.00;99.90;;;;;;4988050;28;21072;-78
2021/04/23 07:40:50;;;;;;;5.38;2.28;;;8.10;99.90;;;;;;4993215;28;20232;-79
2021/04/23 07:43:15;;;;;;;0.75;0.75;;;8.10;99.90;;;;;;4993438;28;20204;-78
2021/04/23 07:45:41;;;;;;;0.20;0.20;;;8.20;99.90;;;;;;4993424;28;20559;-77
2021/04/23 07:48:07;;;;;;;0.17;0.17;;;8.20;99.90;;;;;;4992867;28;20532;-78
2021/04/23 07:50:33;;;;;;;2.72;0.90;;;8.30;99.90;;;;;;4993408;28;20260;-78
2021/04/23 07:52:58;;;;;;;2.65;0.40;;;8.60;99.90;;;;;;4992207;28;20287;-77
2021/04/23 07:55:25;;;;;;;1.27;0.95;;;8.60;99.90;;;;;;5008618;28;20173;-77
2021/04/23 07:57:53;;;;;;;1.00;1.00;;;8.70;99.90;;;;;;5008286;28;20243;-77
2021/04/23 08:00:20;;;;;;;0.60;0.60;;;8.80;99.90;;;;;;4993607;28;20332;-77
2021/04/23 08:02:47;;;;;;;1.20;1.15;;;8.80;99.90;;;;;;4993543;28;20165;-77
2021/04/23 08:05:15;;;;;;;12.95;1.17;;;8.90;99.90;;;;;;4994038;28;20235;-77
2021/04/23 08:07:41;;;;;;;0.40;0.40;;;8.90;99.90;;;;;;5008596;28;20288;-77
2021/04/23 08:10:09;;;;;;;14.05;3.50;;;9.20;99.90;;;;;;5008448;28;20843;-77
2021/04/23 08:12:34;;;;;;;0.80;0.80;;;9.20;99.90;;;;;;4991389;28;20579;-77
2021/04/23 08:15:00;;;;;;;1.65;1.55;;;9.30;99.90;;;;;;4991922;28;20172;-76
2021/04/23 08:17:25;;;;;;;0.20;0.20;;;9.30;99.90;;;;;;4994126;28;20192;-76
2021/04/23 08:19:51;;;;;;;0.40;0.40;;;9.10;99.90;;;;;;5000073;28;20158;-79
2021/04/23 08:22:18;;;;;;;0.20;0.20;;;9.20;99.90;;;;;;5002051;28;20227;-78
2021/04/23 08:24:43;;;;;;;0.30;0.30;;;9.30;99.90;;;;;;5006121;28;20284;-79
2021/04/23 08:27:09;;;;;;;1.25;1.00;;;9.30;99.90;;;;;;5015346;28;20193;-77
2021/04/23 08:29:35;;;;;;;0.40;0.40;;;9.50;99.90;;;;;;5014615;28;20173;-76
2021/04/23 08:32:00;;;;;;;10.68;0.80;;;9.60;99.90;;;;;;5010985;28;20161;-76
2021/04/23 08:34:26;;;;;;;11.27;0.85;;;9.80;99.90;;;;;;5015088;28;20177;-76
2021/04/23 08:36:51;;;;;;;0.63;0.63;;;9.70;99.90;;;;;;5009819;28;20216;-77
2021/04/23 08:39:17;;;;;;;0.65;0.65;;;9.80;99.90;;;;;;5009829;28;20213;-76
2021/04/23 08:41:43;;;;;;;0.77;0.52;;;10.00;99.90;;;;;;5002077;28;20165;-77
2021/04/23 08:44:08;;;;;;;0.70;0.70;;;10.20;99.90;;;;;;4998091;28;20676;-76
2021/04/23 08:46:35;;;;;;;0.38;0.38;;;10.30;99.90;;;;;;4996733;28;20551;-77
2021/04/23 08:49:02;;;;;;;0.45;0.45;;;10.40;99.90;;;;;;4995197;28;20522;-77
2021/04/23 08:51:28;;;;;;;0.73;0.63;;;10.40;99.90;;;;;;4992005;28;20184;-77
2021/04/23 08:53:55;;;;;;;0.50;0.50;;;10.50;99.90;;;;;;4993218;28;20171;-77
2021/04/23 08:56:21;;;;;;;0.40;0.40;;;10.70;99.90;;;;;;4993331;28;20240;-77
2021/04/23 08:58:47;;;;;;;0.95;0.93;;;10.70;99.90;;;;;;4993355;28;20161;-78
2021/04/23 09:01:13;;;;;;;0.70;0.65;;;10.80;99.90;;;;;;4993080;28;20180;-77
2021/04/23 09:03:40;;;;;;;0.38;0.38;;;10.80;99.90;;;;;;4993218;28;20235;-77
2021/04/23 09:06:17;;;;;;;12.55;0.98;;;10.70;99.90;;;;;;5008636;28;20193;-77
2021/04/23 09:09:03;;;;;;;0.40;0.40;;;10.70;99.90;;;;;;5008030;28;20606;-77
2021/04/23 09:11:35;;;;;;;19.85;0.93;;;10.90;99.90;;;;;;4993571;28;20264;-77
2021/04/23 09:14:07;;;;;;;0.65;0.65;;;11.30;99.90;;;;;;4992966;28;20637;-77
2021/04/23 09:16:44;;;;;;;1.25;1.15;;;11.60;99.90;;;;;;4993202;28;20200;-77
2021/04/23 09:19:28;;;;;;;1.23;0.55;;;11.70;99.90;;;;;;4992048;28;20169;-78
2021/04/23 09:22:00;;;;;;;1.35;1.25;;;11.60;99.90;;;;;;5003744;28;20260;-77
2021/04/23 09:24:32;;;;;;;10.40;1.45;;;11.60;99.90;;;;;;5007676;28;20212;-78
2021/04/23 09:27:07;;;;;;;0.40;0.40;;;11.60;99.90;;;;;;4992636;28;20568;-78
2021/04/23 09:29:35;;;;;;;0.50;0.50;;;11.90;99.90;;;;;;4992309;28;20169;-79
2021/04/23 09:32:16;;;;;;;2.17;1.20;;;12.20;99.90;;;;;;4993717;28;20166;-78
2021/04/23 09:34:53;;;;;;;5.13;1.80;;;12.20;99.90;;;;;;4995793;28;20645;-78
2021/04/23 09:37:21;;;;;;;0.25;0.25;;;12.00;99.90;;;;;;5010979;28;20750;-78
2021/04/23 09:39:50;;;;;;;0.85;0.60;;;12.00;99.90;;;;;;4996377;28;20217;-80
2021/04/23 09:42:16;;;;;;;1.85;1.75;;;12.00;99.90;;;;;;4996792;28;20176;-78
2021/04/23 09:44:44;;;;;;;0.35;0.35;;;12.10;99.90;;;;;;4997335;28;20739;-79
2021/04/23 09:47:14;;;;;;;0.77;0.77;;;12.10;99.90;;;;;;4997463;28;20645;-80
2021/04/23 09:49:44;;;;;;;0.55;0.55;;;12.10;99.90;;;;;;5011852;28;20176;-79
2021/04/23 09:52:14;;;;;;;0.30;0.30;;;12.30;99.90;;;;;;4997098;28;20192;-79
2021/04/23 09:54:45;;;;;;;0.40;0.40;;;12.60;99.90;;;;;;4997163;28;20248;-79
2021/04/23 09:57:26;;;;;;;0.40;0.40;;;12.60;99.90;;;;;;4996601;28;20546;-78
2021/04/23 09:59:57;;;;;;;1.23;0.50;;;12.40;99.90;;;;;;4996589;28;20173;-78
2021/04/23 10:02:25;;;;;;;1.48;0.50;;;12.30;99.90;;;;;;4996573;28;20161;-78
2021/04/23 10:04:52;;;;;;;0.80;0.52;;;12.50;99.90;;;;;;4996724;28;20201;-78
2021/04/23 10:07:22;;;;;;;0.52;0.52;;;12.60;99.90;;;;;;4996700;28;20193;-77
2021/04/23 10:09:48;;;;;;;1.00;0.93;;;12.90;99.90;;;;;;5011703;28;20188;-78
2021/04/23 10:12:33;;;;;;;0.22;0.22;;;12.90;99.90;;;;;;4996661;28;20161;-78
2021/04/23 10:15:04;;;;;;;0.45;0.45;;;12.90;99.90;;;;;;4996649;28;20176;-77
2021/04/23 10:17:30;;;;;;;3.22;0.75;;;12.80;99.90;;;;;;5011357;28;20197;-77
2021/04/23 10:19:57;;;;;;;0.63;0.63;;;12.80;99.90;;;;;;4996219;28;20176;-78
2021/04/23 10:22:23;;;;;;;19.35;1.20;;;12.80;99.90;;;;;;4996403;28;20160;-77
2021/04/23 10:24:50;;;;;;;0.80;0.80;;;12.50;99.90;;;;;;4996378;28;20224;-78
2021/04/23 10:27:18;;;;;;;4.78;0.88;;;12.70;99.90;;;;;;4996369;28;20181;-78
2021/04/23 10:29:45;;;;;;;1.17;1.08;;;12.90;99.90;;;;;;4995935;28;20181;-78
2021/04/23 10:32:13;;;;;;;0.80;0.70;;;12.90;99.90;;;;;;4996201;28;20621;-78
2021/04/23 10:34:41;;;;;;;0.60;0.60;;;12.80;99.90;;;;;;5011304;28;20192;-78
2021/04/23 10:37:08;;;;;;;0.50;0.50;;;12.90;99.90;;;;;;4995874;28;20174;-81
2021/04/23 10:39:39;;;;;;;0.40;0.40;;;13.10;99.90;;;;;;4995766;28;20205;-78
2021/04/23 10:42:25;;;;;;;1.02;0.90;;;13.20;99.90;;;;;;4996218;28;20165;-78
2021/04/23 10:44:58;;;;;;;1.13;1.05;;;13.40;99.90;;;;;;4994352;28;20558;-78
2021/04/23 10:47:32;;;;;;;0.20;0.20;;;13.40;99.90;;;;;;4995224;28;20189;-77
2021/04/23 10:50:07;;;;;;;18.75;1.05;;;13.30;99.90;;;;;;4995855;28;20752;-76
2021/04/23 10:52:33;;;;;;;1.35;1.05;;;13.00;99.90;;;;;;4995938;28;20196;-77
2021/04/23 10:55:07;;;;;;;0.30;0.30;;;13.00;99.90;;;;;;4995808;28;20161;-76
2021/04/23 10:57:57;;;;;;;0.70;0.70;;;13.30;99.90;;;;;;4995044;28;20192;-78
2021/04/23 11:00:32;;;;;;;0.98;0.98;;;13.20;99.40;;;;;;4995447;28;20237;-77
2021/04/23 11:03:19;;;;;;;0.22;0.22;;;13.30;99.90;;;;;;4995370;28;20165;-77
2021/04/23 11:05:45;;;;;;;0.80;0.80;;;13.50;99.90;;;;;;4995293;28;20153;-77
2021/04/23 11:08:11;;;;;;;1.75;0.75;;;13.40;99.90;;;;;;4997621;28;20181;-77
2021/04/23 11:11:02;;;;;;;4.50;0.60;;;13.30;99.90;;;;;;4994649;28;20287;-76
2021/04/23 11:13:29;;;;;;;3.30;0.90;;;13.50;99.90;;;;;;4995301;28;20251;-78
2021/04/23 11:18:53;;;;;;;0.68;0.68;;;13.70;99.90;;;;;;4995173;28;20566;-77
2021/04/23 11:21:31;;;;;;;0.60;0.60;;;13.60;99.60;;;;;;4995617;28;20262;-77
2021/04/23 11:24:07;;;;;;;2.55;1.45;;;13.40;99.40;;;;;;4994859;28;20197;-77
2021/04/23 11:29:23;;;;;;;0.68;0.35;;;13.80;99.20;;;;;;4995202;28;20632;-77
2021/04/23 11:32:15;;;;;;;1.95;1.17;;;13.80;98.90;;;;;;4994975;28;20188;-77
2021/04/23 11:34:41;;;;;;;0.82;0.50;;;13.60;98.90;;;;;;4994670;28;20656;-77
2021/04/23 11:37:18;;;;;;;0.93;0.82;;;13.80;98.50;;;;;;4994763;28;20177;-77
2021/04/23 11:39:46;;;;;;;0.55;0.55;;;14.00;96.80;;;;;;5009240;28;20624;-77
2021/04/23 11:42:44;;;;;;;2.55;1.17;;;14.10;96.70;;;;;;4993974;28;20175;-77
2021/04/23 11:45:19;;;;;;;2.90;1.42;;;14.10;96.50;;;;;;4993799;28;20199;-77
2021/04/23 11:47:49;;;;;;;0.75;0.70;;;13.90;95.70;;;;;;4993561;28;20193;-77
2021/04/23 11:50:16;;;;;;;1.50;1.23;;;14.00;96.30;;;;;;4993500;28;20533;-77
2021/04/23 11:52:44;;;;;;;0.40;0.40;;;14.20;96.10;;;;;;4993934;28;20154;-77
2021/04/23 11:55:18;;;;;;;8.38;1.20;;;14.30;96.80;;;;;;4993786;28;20638;-77
2021/04/23 11:57:45;;;;;;;0.30;0.30;;;14.10;96.70;;;;;;4993134;28;20193;-77
2021/04/23 12:00:12;;;;;;;0.70;0.70;;;13.90;97.20;;;;;;4993600;28;20200;-77
2021/04/23 12:02:44;;;;;;;2.65;0.43;;;14.20;95.20;;;;;;4993625;28;20146;-77
2021/04/23 12:05:31;;;;;;;0.20;0.20;;;14.30;94.90;;;;;;4993411;28;20193;-77
2021/04/23 12:08:03;;;;;;;0.32;0.32;;;14.20;95.30;;;;;;4993706;28;20189;-77
2021/04/23 12:10:31;;;;;;;8.65;1.85;;;14.30;95.30;;;;;;4992303;28;20181;-76
2021/04/23 12:12:57;;;;;;;0.22;0.22;;;14.40;95.40;;;;;;5008473;28;20176;-77
2021/04/23 12:15:30;;;;;;;0.22;0.22;;;14.30;94.70;;;;;;4993394;28;20161;-76
2021/04/23 12:17:57;;;;;;;1.08;0.75;;;14.30;94.60;;;;;;4993282;28;20182;-77
2021/04/23 12:20:37;;;;;;;0.20;0.20;;;14.40;95.10;;;;;;4993252;28;20165;-77
2021/04/23 12:23:04;;;;;;;0.55;0.55;;;14.50;94.80;;;;;;4992767;28;20176;-79
2021/04/23 12:25:32;;;;;;;0.25;0.25;;;14.50;94.40;;;;;;4992874;28;20617;-80
2021/04/23 12:28:19;;;;;;;0.30;0.30;;;14.50;94.30;;;;;;4993103;28;20213;-78
2021/04/23 12:30:50;;;;;;;0.85;0.20;;;14.40;94.30;;;;;;4991906;28;20173;-79
2021/04/23 12:33:16;;;;;;;0.60;0.60;;;14.30;93.30;;;;;;5008255;28;20169;-79
2021/04/23 12:35:45;;;;;;;0.70;0.70;;;14.30;93.60;;;;;;5008241;28;20166;-79
2021/04/23 12:38:13;;;;;;;2.85;1.25;;;14.30;93.70;;;;;;4991960;28;20180;-80
2021/04/23 12:40:42;;;;;;;0.98;0.98;;;14.40;94.00;;;;;;4973568;28;581072;-81
2021/04/23 12:43:22;;;;;;;0.30;0.30;;;14.50;93.70;;;;;;4993699;28;20227;-80
2021/04/23 12:45:54;;;;;;;0.22;0.22;;;14.70;93.10;;;;;;5008839;28;20172;-77
2021/04/23 12:48:21;;;;;;;0.52;0.50;;;14.80;92.80;;;;;;4993575;28;20645;-77
2021/04/23 12:50:52;;;;;;;8.27;1.77;;;14.80;94.00;;;;;;4993545;28;20384;-76
2021/04/23 12:53:23;;;;;;;0.20;0.20;;;14.80;93.90;;;;;;4993645;28;20640;-76
2021/04/23 12:55:49;;;;;;;0.65;0.63;;;14.90;93.70;;;;;;5008530;28;20205;-77
2021/04/23 12:58:16;;;;;;;0.25;0.25;;;14.90;93.90;;;;;;4993527;28;20244;-76
2021/04/23 13:00:42;;;;;;;0.80;0.80;;;14.90;94.30;;;;;;4993398;28;20280;-77
2021/04/23 13:03:09;;;;;;;3.88;1.52;;;14.90;94.00;;;;;;4993410;28;20274;-76
2021/04/23 13:05:41;;;;;;;0.82;0.82;;;15.00;94.50;;;;;;5008999;28;20592;-77